OOCL Chongqing — VRLZ4 — position and weather

sailwx.info

Track history (hours):
 
Tides and Currents Weather Stations Pressure Air Temp Water Temp Dewpoint Dewpoint Depression Visibility Wind Speed Wind Dir Waves Ship Positions

OOCL Chongqing

Last reported at 2018-May-12 06:20 UTC. Time now 2018-May-20 21:10 UTC.
Position N 36°14' E 014°52'.
Warning: this ship's position is 8 days out of date.

Length 366 m; draft 13.3 m.

Type: Cargo ship. MMSI: 477832400.

Date/timePositionNaut miles runAvg speedWind from/ knotsBaromVisibWave heightAir tempDewpointWater temp
2018-May-12 06:20N 36°14' E 014°52'515.1
2018-May-12 06:00N 36°15' E 014°47'815.1
2018-May-12 05:30N 36°17' E 014°38'815.1
2018-May-12 05:00N 36°19' E 014°28'815.2
2018-May-12 04:29N 36°22' E 014°19'715.1
2018-May-12 04:00N 36°24' E 014°11'815.3
2018-May-12 03:30N 36°26' E 014°01'815.3
2018-May-12 02:59N 36°29' E 013°52'715.2
2018-May-12 02:30N 36°33' E 013°45'714.8
2018-May-12 02:00N 36°33' E 013°35'914.9
2018-May-12 01:23N 36°37' E 013°25'614.9
2018-May-12 01:00N 36°39' E 013°18'714.7
2018-May-12 00:30N 36°41' E 013°10'814.6
2018-May-11 23:58N 36°42' E 012°60'714.9
2018-May-11 23:29N 36°45' E 012°51'915.1
2018-May-11 22:52N 36°48' E 012°40'64315.1
2018-May-10 04:20N 36°33' W 000°41'22016.0
2018-May-09 14:34N 36°00' W 005°11'117.5
2018-May-09 14:30N 36°00' W 005°12'917.6
2018-May-09 14:00N 35°58' W 005°23'15715.8
2018-May-09 04:05N 36°07' W 008°37'115.1
2018-May-09 03:59N 36°07' W 008°38'1314.9
2018-May-09 03:05N 36°08' W 008°55'114.7
2018-May-09 03:00N 36°09' W 008°57'814.8
2018-May-09 02:30N 36°10' W 009°06'715.0
2018-May-09 02:00N 36°12' W 009°14'815.2
2018-May-09 01:30N 36°14' W 009°23'815.1
2018-May-09 00:59N 36°17' W 009°32'814.9
2018-May-09 00:27N 36°20' W 009°42'815.0
2018-May-08 23:57N 36°23' W 009°50'915.1
2018-May-08 23:22N 36°26' W 010°00'2415.1
2018-May-08 21:48N 36°36' W 010°27'615.2
2018-May-08 21:24N 36°39' W 010°34'915.3
2018-May-08 20:50N 36°42' W 010°44'515.4
2018-May-08 20:30N 36°44' W 010°50'1015.8
2018-May-08 19:54N 36°48' W 011°01'615.5
2018-May-08 19:30N 36°50' W 011°08'1115.4
2018-May-08 18:47N 36°54' W 011°21'415.2
2018-May-08 18:30N 36°56' W 011°26'815.3
2018-May-08 18:00N 36°59' W 011°34'1015.3
2018-May-08 17:19N 37°04' W 011°46'515.2
2018-May-08 16:59N 37°06' W 011°52'815.3
2018-May-08 16:28N 37°09' W 012°01'915.4
2018-May-08 15:51N 37°12' W 012°12'515.3
2018-May-08 15:30N 37°15' W 012°18'915.3
2018-May-08 14:54N 37°18' W 012°29'2315.1
2018-May-08 13:23N 37°27' W 012°56'616.2
2018-May-08 12:59N 37°29' W 013°03'816.2
2018-May-08 12:30N 37°32' W 013°12'63116.2
2018-May-06 21:39N 40°35' W 026°10'216.1
2018-May-06 21:30N 40°35' W 026°13'9916.3
2018-May-06 15:27N 40°39' W 028°23'916.8
2018-May-06 14:56N 40°39' W 028°34'716.5
2018-May-06 14:31N 40°39' W 028°43'916.6
2018-May-06 13:58N 40°40' W 028°55'816.5
2018-May-06 13:30N 40°40' W 029°05'816.5
2018-May-06 13:00N 40°40' W 029°16'816.6
2018-May-06 12:30N 40°40' W 029°27'2616.6
2018-May-06 10:56N 40°40' W 030°01'816.8
2018-May-06 10:27N 40°40' W 030°12'816.9
2018-May-06 10:00N 40°40' W 030°22'1316.9
2018-May-06 09:14N 40°41' W 030°39'416.9
2018-May-06 09:00N 40°41' W 030°44'816.7
2018-May-06 08:30N 40°40' W 030°55'816.7
2018-May-06 08:00N 40°40' W 031°06'1216.8
2018-May-06 07:16N 40°40' W 031°22'617.0
2018-May-06 06:53N 40°40' W 031°31'717.0
2018-May-06 06:30N 40°40' W 031°39'916.9
2018-May-06 05:58N 40°40' W 031°52'817.0
2018-May-06 05:29N 40°40' W 032°02'  
Track history (hours):
 
Tides and Currents Weather Stations Pressure Air Temp Water Temp Dewpoint Dewpoint Depression Visibility Wind Speed Wind Dir Waves Ship Positions

OOCL Chongqing

Last reported at 2018-May-12 06:20 UTC. Time now 2018-May-20 21:10 UTC.
Position N 36°14' E 014°52'.
Warning: this ship's position is 8 days out of date.

Length 366 m; draft 13.3 m.

Type: Cargo ship. MMSI: 477832400.

Date/timePositionNaut miles runAvg speedWind from/ knotsBaromVisibWave heightAir tempDewpointWater temp
2018-May-12 06:20N 36°14' E 014°52'515.1
2018-May-12 06:00N 36°15' E 014°47'815.1
2018-May-12 05:30N 36°17' E 014°38'815.1
2018-May-12 05:00N 36°19' E 014°28'815.2
2018-May-12 04:29N 36°22' E 014°19'715.1
2018-May-12 04:00N 36°24' E 014°11'815.3
2018-May-12 03:30N 36°26' E 014°01'815.3
2018-May-12 02:59N 36°29' E 013°52'715.2
2018-May-12 02:30N 36°33' E 013°45'714.8
2018-May-12 02:00N 36°33' E 013°35'914.9
2018-May-12 01:23N 36°37' E 013°25'614.9
2018-May-12 01:00N 36°39' E 013°18'714.7
2018-May-12 00:30N 36°41' E 013°10'814.6
2018-May-11 23:58N 36°42' E 012°60'714.9
2018-May-11 23:29N 36°45' E 012°51'915.1
2018-May-11 22:52N 36°48' E 012°40'64315.1
2018-May-10 04:20N 36°33' W 000°41'22016.0
2018-May-09 14:34N 36°00' W 005°11'117.5
2018-May-09 14:30N 36°00' W 005°12'917.6
2018-May-09 14:00N 35°58' W 005°23'15715.8
2018-May-09 04:05N 36°07' W 008°37'115.1
2018-May-09 03:59N 36°07' W 008°38'1314.9
2018-May-09 03:05N 36°08' W 008°55'114.7
2018-May-09 03:00N 36°09' W 008°57'814.8
2018-May-09 02:30N 36°10' W 009°06'715.0
2018-May-09 02:00N 36°12' W 009°14'815.2
2018-May-09 01:30N 36°14' W 009°23'815.1
2018-May-09 00:59N 36°17' W 009°32'814.9
2018-May-09 00:27N 36°20' W 009°42'815.0
2018-May-08 23:57N 36°23' W 009°50'915.1
2018-May-08 23:22N 36°26' W 010°00'2415.1
2018-May-08 21:48N 36°36' W 010°27'615.2
2018-May-08 21:24N 36°39' W 010°34'915.3
2018-May-08 20:50N 36°42' W 010°44'515.4
2018-May-08 20:30N 36°44' W 010°50'1015.8
2018-May-08 19:54N 36°48' W 011°01'615.5
2018-May-08 19:30N 36°50' W 011°08'1115.4
2018-May-08 18:47N 36°54' W 011°21'415.2
2018-May-08 18:30N 36°56' W 011°26'815.3
2018-May-08 18:00N 36°59' W 011°34'1015.3
2018-May-08 17:19N 37°04' W 011°46'515.2
2018-May-08 16:59N 37°06' W 011°52'815.3
2018-May-08 16:28N 37°09' W 012°01'915.4
2018-May-08 15:51N 37°12' W 012°12'515.3
2018-May-08 15:30N 37°15' W 012°18'915.3
2018-May-08 14:54N 37°18' W 012°29'2315.1
2018-May-08 13:23N 37°27' W 012°56'616.2
2018-May-08 12:59N 37°29' W 013°03'816.2
2018-May-08 12:30N 37°32' W 013°12'63116.2
2018-May-06 21:39N 40°35' W 026°10'216.1
2018-May-06 21:30N 40°35' W 026°13'9916.3
2018-May-06 15:27N 40°39' W 028°23'916.8
2018-May-06 14:56N 40°39' W 028°34'716.5
2018-May-06 14:31N 40°39' W 028°43'916.6
2018-May-06 13:58N 40°40' W 028°55'816.5
2018-May-06 13:30N 40°40' W 029°05'816.5
2018-May-06 13:00N 40°40' W 029°16'816.6
2018-May-06 12:30N 40°40' W 029°27'2616.6
2018-May-06 10:56N 40°40' W 030°01'816.8
2018-May-06 10:27N 40°40' W 030°12'816.9
2018-May-06 10:00N 40°40' W 030°22'1316.9
2018-May-06 09:14N 40°41' W 030°39'416.9
2018-May-06 09:00N 40°41' W 030°44'816.7
2018-May-06 08:30N 40°40' W 030°55'816.7
2018-May-06 08:00N 40°40' W 031°06'1216.8
2018-May-06 07:16N 40°40' W 031°22'617.0
2018-May-06 06:53N 40°40' W 031°31'717.0
2018-May-06 06:30N 40°40' W 031°39'916.9
2018-May-06 05:58N 40°40' W 031°52'817.0
2018-May-06 05:29N 40°40' W 032°02'  

Dump ship's entire track history